• Join FlightAware (Why Join?)
  • Login
  • US Flag 
10:50PM EDT


 

Airport Tracker/Info


-or-


 

Live Flight TrackerFlight Track Log ✈ AXM6057 ✈ 08-Jul-2013 ✈ WBGB / BTU - WBGG / KCH

Flight Track Log - Related Links

Times and Time Zones

All times are in EDT time to prevent confusion due to time zone crossing. See the AXM6057 flight status page for this flight to view local times or setup timezone preferences in your user account.

Time Position Orientation Groundspeed Altitude Reporting Facility
EDT Latitude Longitude Course Direction KTS MPH feet Rate Location/Type
11:01PM 1.9590 111.3480 240° Southwest 401 461 17,800  Level FlightAware
11:01PM 1.9300 111.2970 240° Southwest 403 464 17,300 -2,580 Descending FlightAware
11:03PM 1.8680 111.1910 240° Southwest 384 442 13,600 -2,520 Descending FlightAware
11:03PM 1.8360 111.1260 244° Southwest 373 429 12,900 -1,380 Descending FlightAware
11:04PM 1.8020 111.0570 244° Southwest 368 423 11,700 -1,980 Descending FlightAware
11:05PM 1.7740 110.9970 245° Southwest 356 410 10,200 -2,580 Descending FlightAware
11:05PM 1.7450 110.9360 245° Southwest 352 405 8,300 -2,760 Descending FlightAware
11:06PM 1.7330 110.9100 245° Southwest 349 402 7,500 -2,040 Descending FlightAware
11:06PM 1.7150 110.8710 245° Southwest 330 380 6,800 -1,320 Descending FlightAware
11:06PM 1.6990 110.8370 245° Southwest 309 356 6,400 -900 Descending FlightAware
11:07PM 1.6820 110.8010 245° Southwest 290 334 6,000 -960 Descending FlightAware
11:07PM 1.6660 110.7670 245° Southwest 282 325 5,500 -900 Descending FlightAware
11:08PM 1.6500 110.7340 244° Southwest 283 326 5,200 -780 Descending FlightAware
11:08PM 1.6350 110.7000 246° West 282 325 4,800 -840 Descending FlightAware
11:09PM 1.6220 110.6730 244° Southwest 282 325 4,500 -780 Descending FlightAware
11:09PM 1.6040 110.6360 244° Southwest 263 303 4,100 -840 Descending FlightAware
11:10PM 1.5910 110.6080 245° Southwest 247 284 3,700 -900 Descending FlightAware
11:10PM 1.5770 110.5780 245° Southwest 233 268 3,300 -720 Descending FlightAware
11:11PM 1.5690 110.5580 248° West 226 260 3,100 -720 Descending FlightAware
11:11PM 1.5600 110.5370 247° West 219 252 2,800 -780 Descending FlightAware
11:11PM 1.5530 110.5190 249° West 212 244 2,500 -480 Descending FlightAware
11:12PM 1.5410 110.4890 248° West 182 209 2,400 -360 Descending FlightAware
11:12PM 1.5340 110.4710 249° West 168 193 2,200 -720 Descending FlightAware
11:13PM 1.5270 110.4520 250° West 158 182 1,800 -840 Descending FlightAware
11:13PM 1.5200 110.4350 248° West 145 167 1,500 -780 Descending FlightAware
11:14PM 1.5130 110.4170 249° West 140 161 1,100 -780 Descending FlightAware
11:14PM 1.5080 110.4050 247° West 143 165 900 -660 Descending FlightAware
11:14PM 1.5040 110.3940 250° West 139 160 700 -660 Descending FlightAware
11:15PM 1.4970 110.3780 246° West 137 158 400 -780 Descending FlightAware
11:15PM 1.4940 110.3700 249° West 139 160 200 -1,020 Descending FlightAware
11:15PM 1.4880 110.3550 248° West 90 104 -420 Descending FlightAware
11:16PM 1.4850 110.3470 249° West 55 63  Level FlightAware
11:16PM 1.4840 110.3430 256° West 30 35  Level FlightAware
11:17PM 1.4850 110.3430 360° North 31 36  Level FlightAware
11:17PM 1.4860 110.3420 315° West 23 26  Level FlightAware
11:17PM 1.4860 110.3440 90° East 24 28  Level FlightAware
11:18PM 1.4870 110.3440 360° North 10 12  Level FlightAware
11:21PM 1.4849 110.3465 130° Southeast  Level Estimated
11:22PM 1.4849 110.3465 117° Southeast  Level Estimated
11:23PM 1.4849 110.3465 117° Southeast  Level Estimated
11:24PM 1.4849 110.3465 117° Southeast  Level Estimated
11:25PM 1.4849 110.3465 117° Southeast  Level Estimated